Washington, NJ

6:52 AM EDT on October 02, 2014 (GMT -0400)
Washington Twp | Change Station
CLOSE
Current Station
Personal Weather Station
Location: Washington, NJ
Elevation: 156 m
Nearby Weather Stations

Elev 156 m 40.77 °N, 74.99 °W | Updated 14 minutes ago

Overcast
Overcast
14.6 °C
Feels Like 14.6 °C
N
2.7
Wind Variable Wind from NNE

Today
High -- | Low -- °C
--% Chance of Precip.
Yesterday
High -- | Low -- °C
Precip. -- mm
6:57 AM 6:40 PM
First Quarter, 57% visible
Pressure 1019 hPa
Visibility 16.1 kilometers
Clouds Overcast 670 m
Dew Point 14 °C
Humidity 97%
Rainfall 0 mm
Snow Depth Not available.
UV 0 out of 12
Pollen 2.00 out of 12
Air Quality Not available.
Flu Activity Not available.
METAR KSMQ 020953Z AUTO 01003KT 10SM OVC022 17/13 A3010 RMK AO2 SLP192 T01670133

More Conditions Fewer Conditions

Pressure 1019 hPa
Visibility 16.1 kilometers
Clouds Overcast 670 m
Dew Point 14 °C
Humidity 97%
Rainfall 0 mm
Snow Depth Not available.
UV 0 out of 12
Pollen 2.00 out of 12
Air Quality Not available.
Flu Activity Not available.
METAR KSMQ 020953Z AUTO 01003KT 10SM OVC022 17/13 A3010 RMK AO2 SLP192 T01670133

More Conditions Fewer Conditions

10-Day Weather Forecast

Almanac

Astronomy

Oct. 02, 2014 Rise Set
Actual Time 6:57 AM EDT 6:40 PM EDT
Civil Twilight 6:30 AM EDT 7:07 PM EDT
Nautical Twilight 5:58 AM EDT 7:39 PM EDT
Astronomical Twilight 5:26 AM EDT 8:11 PM EDT
Moon 2:46 PM EDT 12:09 AM EDT
Length of Visible Light 12h 37m
Length of Day
11h 42m
Tomorrow will be 2m 40s shorter.
First Quarter, 57% of the Moon is Illuminated
Today
First Quarter
Oct 8
Full
Oct 15
Last Quarter
Oct 23
New
Oct 30
First Quarter

Today's Extremes

State Highs State Lows

Community

WunderPhotos

Upload Photos

1,758,210 photos uploaded!

WunderBlogs® & News

Nearby

Snow Depth

Station Depth Elevation
No new snow has been reported.

Earthquake Activity

City Distance Mag. Time & Date
No recent earthquake activity has been reported nearby.
Minimum magnitude displayed is 2.5.

Coastal Water Temperatures

Place Temperature
No Stations Reporting

Nearby Weather Stations